Terminal Aerodrome Forecast
Issued by NWS

Home | Current Version | Previous Version | Text Only | Print | Product List | Glossary On
Versions: 1 2 3 4 5 6 7 8 9 10 11 12 13 14
000
FTUS43 KAPX 201100
TAFTVC
TAF
KTVC 201120Z 2012/2112 17006KT P6SM VCSH OVC090 WS015/19030KT
     FM201400 22010KT 5SM -RA BKN040 OVC080
     FM210000 VRB03KT 4SM -RA BR BKN025 OVC040=

USA.gov is the U.S. government's official web portal to all federal, state and local government web resources and services.